Time;durP1;ratioP1;P1;durP2;ratioP2;P2;SDS_P1;SDS_P2;PMS_P1;PMS_P2;Temp;Humidity;BMP_temperature;BMP_pressure;BME280_temperature;BME280_humidity;BME280_pressure;Samples;Min_cycle;Max_cycle;Signal;HPM_P1;HPM_P2
2023/04/21 00:01:17;;;;;;;39.28;22.23;;;;;;;-144.87;100.00;61487.56;4938642;28;20058;-79
2023/04/21 00:03:43;;;;;;;41.90;24.80;;;;;;;-144.87;100.00;61487.56;4957198;28;20130;-81
2023/04/21 00:06:09;;;;;;;44.20;25.25;;;;;;;-144.87;100.00;61487.56;4956009;28;20116;-81
2023/04/21 00:08:39;;;;;;;45.58;25.75;;;;;;;-144.87;100.00;61487.56;4943589;29;20043;-82
2023/04/21 00:11:06;;;;;;;41.80;26.90;;;;;;;-144.87;100.00;61487.56;4948578;28;20055;-81
2023/04/21 00:13:33;;;;;;;42.65;25.15;;;;;;;-144.87;100.00;61487.56;4905469;29;20047;-81
2023/04/21 00:16:00;;;;;;;44.00;26.85;;;;;;;-144.87;100.00;61487.56;4921203;29;20051;-81
2023/04/21 00:18:26;;;;;;;40.70;25.90;;;;;;;-144.87;100.00;61487.56;4932394;29;20035;-81
2023/04/21 00:20:53;;;;;;;42.97;25.85;;;;;;;-144.87;100.00;61487.56;4917194;29;20362;-81
2023/04/21 00:23:19;;;;;;;51.22;27.90;;;;;;;-144.87;100.00;61487.56;4955781;29;20093;-82
2023/04/21 00:25:45;;;;;;;48.55;28.50;;;;;;;-144.87;100.00;61487.56;4936588;29;20544;-81
2023/04/21 00:28:12;;;;;;;44.55;27.27;;;;;;;-144.87;100.00;61487.56;4942959;28;20482;-83
2023/04/21 00:30:38;;;;;;;51.08;29.50;;;;;;;-144.87;100.00;61487.56;4922912;29;20168;-81
2023/04/21 00:33:04;;;;;;;47.25;28.67;;;;;;;-144.87;100.00;61487.56;4934847;29;20051;-81
2023/04/21 00:35:31;;;;;;;53.50;30.52;;;;;;;-144.87;100.00;61487.56;4933897;29;20455;-81
2023/04/21 00:37:57;;;;;;;53.88;29.98;;;;;;;-144.87;100.00;61487.56;4937617;29;20027;-81
2023/04/21 00:40:23;;;;;;;51.47;30.50;;;;;;;-144.87;100.00;61487.56;4940242;28;20046;-80
2023/04/21 00:42:49;;;;;;;54.95;29.90;;;;;;;-144.87;100.00;61487.56;4904046;29;20122;-80
2023/04/21 00:45:16;;;;;;;55.08;30.30;;;;;;;-144.87;100.00;61487.56;4932560;29;20047;-81
2023/04/21 00:47:42;;;;;;;55.90;30.88;;;;;;;-144.87;100.00;61487.56;4925650;28;20464;-83
2023/04/21 00:50:11;;;;;;;55.47;31.45;;;;;;;-144.87;100.00;61487.56;4915647;28;20058;-82
2023/04/21 00:52:42;;;;;;;57.92;32.72;;;;;;;-144.87;100.00;61487.56;4939291;28;20074;-80
2023/04/21 00:55:09;;;;;;;62.10;32.45;;;;;;;-144.87;100.00;61487.56;4918222;29;20086;-89
2023/04/21 00:57:39;;;;;;;66.20;32.85;;;;;;;-144.87;100.00;61487.56;4919712;29;20035;-82
2023/04/21 01:00:07;;;;;;;61.08;33.97;;;;;;;-144.87;100.00;61487.56;4918514;29;20081;-80
2023/04/21 01:02:40;;;;;;;66.18;33.70;;;;;;;-144.87;100.00;61487.56;4922343;28;20043;-80
2023/04/21 01:05:10;;;;;;;68.75;35.85;;;;;;;-144.87;100.00;61487.56;4953392;28;20042;-80
2023/04/21 01:07:38;;;;;;;67.97;36.38;;;;;;;-144.87;100.00;61487.56;4958035;28;20354;-80
2023/04/21 01:10:05;;;;;;;67.43;35.85;;;;;;;-144.87;100.00;61487.56;4950938;28;20027;-80
2023/04/21 01:12:31;;;;;;;70.78;36.03;;;;;;;-144.87;100.00;61487.56;4954765;28;20805;-80
2023/04/21 01:14:58;;;;;;;70.90;36.70;;;;;;;-144.87;100.00;61487.56;4935742;29;20094;-81
2023/04/21 01:17:25;;;;;;;69.82;37.08;;;;;;;-144.87;100.00;61487.56;4933068;28;20036;-80
2023/04/21 01:19:53;;;;;;;84.00;39.70;;;;;;;-144.87;100.00;61487.56;4947792;28;20027;-81
2023/04/21 01:22:20;;;;;;;84.18;41.08;;;;;;;-144.87;100.00;61487.56;4893357;29;20643;-80
2023/04/21 01:24:47;;;;;;;79.82;39.88;;;;;;;-144.87;100.00;61487.56;4936510;29;20050;-81
2023/04/21 01:27:15;;;;;;;82.03;40.25;;;;;;;-144.87;100.00;61487.56;4935057;29;20107;-82
2023/04/21 01:29:43;;;;;;;88.07;41.38;;;;;;;-144.87;100.00;61487.56;4949040;28;20120;-81
2023/04/21 01:32:14;;;;;;;92.22;42.03;;;;;;;-144.87;100.00;61487.56;4916291;28;20098;-79
2023/04/21 01:34:40;;;;;;;;;;;;;;;-144.87;100.00;61487.56;4923637;29;20200;-80
2023/04/21 01:37:17;;;;;;;83.90;39.35;;;;;;;-144.87;100.00;61487.56;4919013;29;20008;-80
2023/04/21 01:39:47;;;;;;;88.80;39.40;;;;;;;-144.87;100.00;61487.56;4935736;28;20066;-82
2023/04/21 01:42:13;;;;;;;78.72;37.08;;;;;;;-144.87;100.00;61487.56;4928902;28;20110;-82
2023/04/21 01:44:41;;;;;;;84.40;41.88;;;;;;;-144.87;100.00;61487.56;4933845;28;20047;-79
2023/04/21 01:47:07;;;;;;;92.45;43.25;;;;;;;-144.87;100.00;61487.56;4921091;28;20055;-79
2023/04/21 01:49:34;;;;;;;94.40;43.30;;;;;;;-144.87;100.00;61487.56;4937555;29;20039;-82
2023/04/21 01:52:00;;;;;;;93.20;43.40;;;;;;;-144.87;100.00;61487.56;4935485;29;20039;-82
2023/04/21 01:54:26;;;;;;;87.95;41.50;;;;;;;-144.87;100.00;61487.56;4920931;29;20046;-81
2023/04/21 01:56:53;;;;;;;96.80;44.28;;;;;;;-144.87;100.00;61487.56;4939908;28;20039;-81
2023/04/21 01:59:20;;;;;;;92.55;44.20;;;;;;;-144.87;100.00;61487.56;4893781;29;20040;-80
2023/04/21 02:01:46;;;;;;;96.47;44.53;;;;;;;-144.87;100.00;61487.56;4898125;29;20047;-80
2023/04/21 02:04:13;;;;;;;97.05;44.67;;;;;;;-144.87;100.00;61487.56;4893587;29;20402;-81
2023/04/21 02:06:39;;;;;;;101.88;46.17;;;;;;;-144.87;100.00;61487.56;4910570;29;20135;-80
2023/04/21 02:09:06;;;;;;;99.20;45.45;;;;;;;-144.87;100.00;61487.56;4888083;29;20415;-80
2023/04/21 02:11:32;;;;;;;92.78;43.92;;;;;;;-144.87;100.00;61487.56;4863425;29;20071;-80
2023/04/21 02:13:59;;;;;;;94.13;43.92;;;;;;;-144.87;100.00;61487.56;4911851;29;20461;-79
2023/04/21 02:16:26;;;;;;;106.05;46.10;;;;;;;-144.87;100.00;61487.56;4894438;29;20059;-81
2023/04/21 02:18:55;;;;;;;112.38;46.45;;;;;;;-144.87;100.00;61487.56;4881612;29;20067;-80
2023/04/21 02:21:26;;;;;;;105.95;46.55;;;;;;;-144.87;100.00;61487.56;4871146;29;20044;-81
2023/04/21 02:23:52;;;;;;;108.22;47.00;;;;;;;-144.87;100.00;61487.56;4914981;29;20039;-82
2023/04/21 02:26:19;;;;;;;110.20;47.58;;;;;;;-144.87;100.00;61487.56;4889147;29;20048;-83
2023/04/21 02:28:46;;;;;;;119.95;47.75;;;;;;;-144.87;100.00;61487.56;4881841;29;20131;-81
2023/04/21 02:31:15;;;;;;;114.28;48.47;;;;;;;-144.87;100.00;61487.56;4905188;28;20052;-80
2023/04/21 02:33:41;;;;;;;120.85;49.28;;;;;;;-144.87;100.00;61487.56;4934258;28;20078;-80
2023/04/21 02:36:10;;;;;;;115.03;47.63;;;;;;;-144.87;100.00;61487.56;4917858;29;20035;-81
2023/04/21 02:38:37;;;;;;;122.90;48.65;;;;;;;-144.87;100.00;61487.56;4937601;28;20090;-80
2023/04/21 02:41:03;;;;;;;118.95;47.53;;;;;;;-144.87;100.00;61487.56;4915923;29;20458;-80
2023/04/21 02:43:29;;;;;;;115.32;47.78;;;;;;;-144.87;100.00;61487.56;4953368;28;20039;-81
2023/04/21 02:45:55;;;;;;;124.85;48.97;;;;;;;-144.87;100.00;61487.56;4928208;29;20039;-82
2023/04/21 02:48:22;;;;;;;117.97;47.97;;;;;;;-144.87;100.00;61487.56;4919306;28;20067;-81
2023/04/21 02:50:49;;;;;;;127.75;49.55;;;;;;;-144.87;100.00;61487.56;4920684;29;20047;-82
2023/04/21 02:53:16;;;;;;;115.25;47.30;;;;;;;-144.87;100.00;61487.56;4930014;29;20126;-83
2023/04/21 02:55:42;;;;;;;125.93;49.65;;;;;;;-144.87;100.00;61487.56;4955207;28;20425;-80
2023/04/21 02:58:10;;;;;;;130.73;49.17;;;;;;;-144.87;100.00;61487.56;4901765;29;20129;-82
2023/04/21 03:00:36;;;;;;;139.27;51.40;;;;;;;-144.87;100.00;61487.56;4951312;28;20130;-80
2023/04/21 03:03:03;;;;;;;147.30;50.38;;;;;;;-144.87;100.00;61487.56;4933152;29;20032;-80
2023/04/21 03:05:30;;;;;;;127.68;50.70;;;;;;;-144.87;100.00;61487.56;4934846;29;20583;-81
2023/04/21 03:07:56;;;;;;;124.07;49.60;;;;;;;-144.87;100.00;61487.56;4901243;29;20043;-80
2023/04/21 03:10:22;;;;;;;125.43;49.80;;;;;;;-144.87;100.00;61487.56;4913720;29;20078;-81
2023/04/21 03:12:49;;;;;;;125.00;49.13;;;;;;;-144.87;100.00;61487.56;4895847;29;20555;-81
2023/04/21 03:15:16;;;;;;;127.97;50.00;;;;;;;-144.87;100.00;61487.56;4934129;28;20442;-82
2023/04/21 03:17:42;;;;;;;131.02;52.42;;;;;;;-144.87;100.00;61487.56;4918014;29;20031;-81
2023/04/21 03:20:11;;;;;;;143.70;52.03;;;;;;;-144.87;100.00;61487.56;4906085;28;20058;-82
2023/04/21 03:22:38;;;;;;;131.77;51.47;;;;;;;-144.87;100.00;61487.56;4949489;28;20125;-81
2023/04/21 03:25:06;;;;;;;126.72;50.22;;;;;;;-144.87;100.00;61487.56;4919669;29;20038;-80
2023/04/21 03:27:32;;;;;;;136.10;53.17;;;;;;;-144.87;100.00;61487.56;4935750;28;20152;-81
2023/04/21 03:29:59;;;;;;;141.10;52.00;;;;;;;-144.87;100.00;61487.56;4899682;28;20039;-81
2023/04/21 03:32:25;;;;;;;142.57;52.17;;;;;;;-144.87;100.00;61487.56;4933868;29;20046;-81
2023/04/21 03:38:16;;;;;;;133.07;51.78;;;;;;;-144.87;100.00;61487.56;4953769;28;20397;-81
2023/04/21 03:40:42;;;;;;;136.73;51.42;;;;;;;-144.87;100.00;61487.56;4942227;28;20097;-82
2023/04/21 03:43:09;;;;;;;139.70;51.95;;;;;;;-144.87;100.00;61487.56;4924549;28;20059;-81
2023/04/21 03:45:37;;;;;;;152.73;53.40;;;;;;;-144.87;100.00;61487.56;4909729;28;20069;-80
2023/04/21 03:48:04;;;;;;;142.70;53.60;;;;;;;-144.87;100.00;61487.56;4921152;29;20131;-82
2023/04/21 03:50:30;;;;;;;150.80;53.67;;;;;;;-144.87;100.00;61487.56;4945259;28;20122;-83
2023/04/21 03:52:56;;;;;;;137.43;53.28;;;;;;;-144.87;100.00;61487.56;4930992;28;20020;-81
2023/04/21 03:55:22;;;;;;;144.40;52.92;;;;;;;-144.87;100.00;61487.56;4968312;28;20091;-83
2023/04/21 03:57:49;;;;;;;140.15;51.67;;;;;;;-144.87;100.00;61487.56;4947551;28;20031;-82
2023/04/21 04:00:15;;;;;;;133.80;52.50;;;;;;;-144.87;100.00;61487.56;4944410;28;20107;-84
2023/04/21 04:02:42;;;;;;;134.85;50.08;;;;;;;-144.87;100.00;61487.56;4958975;28;20030;-81
2023/04/21 04:05:08;;;;;;;135.00;51.92;;;;;;;-144.87;100.00;61487.56;4962049;28;20091;-82
2023/04/21 04:07:35;;;;;;;136.95;51.45;;;;;;;-144.87;100.00;61487.56;4959578;28;20031;-81
2023/04/21 04:10:01;;;;;;;145.00;52.42;;;;;;;-144.87;100.00;61487.56;4973833;28;20062;-80
2023/04/21 04:12:27;;;;;;;144.55;51.25;;;;;;;-144.87;100.00;61487.56;4952603;28;20086;-80
2023/04/21 04:14:54;;;;;;;135.13;50.55;;;;;;;-144.87;100.00;61487.56;4954286;28;20030;-82
2023/04/21 04:17:20;;;;;;;128.13;49.25;;;;;;;-144.87;100.00;61487.56;4955478;28;20123;-81
2023/04/21 04:19:46;;;;;;;148.73;52.47;;;;;;;-144.87;100.00;61487.56;4935156;29;20059;-81
2023/04/21 04:22:12;;;;;;;139.23;51.17;;;;;;;-144.87;100.00;61487.56;4937743;29;20453;-82
2023/04/21 04:24:38;;;;;;;127.65;50.80;;;;;;;-144.87;100.00;61487.56;4931499;28;20050;-81
2023/04/21 04:27:05;;;;;;;131.63;50.47;;;;;;;-144.87;100.00;61487.56;4938158;28;20043;-82
2023/04/21 04:29:32;;;;;;;128.82;48.88;;;;;;;-144.87;100.00;61487.56;4932147;29;20035;-82
2023/04/21 04:32:00;;;;;;;133.60;51.65;;;;;;;-144.87;100.00;61487.56;4951793;28;20456;-82
2023/04/21 04:34:26;;;;;;;141.77;52.45;;;;;;;-144.87;100.00;61487.56;4923051;29;20043;-82
2023/04/21 04:36:52;;;;;;;145.50;52.28;;;;;;;-144.87;100.00;61487.56;4948192;29;20050;-82
2023/04/21 04:39:21;;;;;;;135.00;52.20;;;;;;;-144.87;100.00;61487.56;4938963;29;20481;-82
2023/04/21 04:41:47;;;;;;;133.77;50.85;;;;;;;-144.87;100.00;61487.56;4941118;28;20066;-81
2023/04/21 04:44:15;;;;;;;148.02;52.10;;;;;;;-144.87;100.00;61487.56;4905639;29;20044;-83
2023/04/21 04:46:41;;;;;;;150.35;53.92;;;;;;;-144.87;100.00;61487.56;4924188;28;20050;-83
2023/04/21 04:49:07;;;;;;;141.48;54.40;;;;;;;-144.87;100.00;61487.56;4920886;29;20039;-82
2023/04/21 04:51:34;;;;;;;139.60;54.45;;;;;;;-144.87;100.00;61487.56;4936961;28;20063;-82
2023/04/21 04:54:00;;;;;;;141.10;53.20;;;;;;;-144.87;100.00;61487.56;4922636;29;20622;-82
2023/04/21 04:56:30;;;;;;;139.63;53.60;;;;;;;-144.87;100.00;61487.56;4940851;29;20089;-83
2023/04/21 04:58:56;;;;;;;141.38;55.08;;;;;;;-144.87;100.00;61487.56;4923381;29;20434;-82
2023/04/21 05:01:28;;;;;;;137.73;54.55;;;;;;;-144.87;100.00;61487.56;4934415;29;20057;-82
2023/04/21 05:03:55;;;;;;;144.45;54.05;;;;;;;-144.87;100.00;61487.56;4931563;29;20105;-82
2023/04/21 05:06:23;;;;;;;129.95;52.65;;;;;;;-144.87;100.00;61487.56;4955167;29;20047;-82
2023/04/21 05:08:49;;;;;;;132.50;51.67;;;;;;;-144.87;100.00;61487.56;4921295;29;20050;-82
2023/04/21 05:11:15;;;;;;;123.68;52.38;;;;;;;-144.87;100.00;61487.56;4920440;29;20106;-84
2023/04/21 05:13:41;;;;;;;127.63;52.55;;;;;;;-144.87;100.00;61487.56;4934950;29;20492;-82
2023/04/21 05:16:11;;;;;;;126.15;52.60;;;;;;;-144.87;100.00;61487.56;4933512;29;20043;-81
2023/04/21 05:18:37;;;;;;;125.45;52.25;;;;;;;-144.87;100.00;61487.56;4908960;28;20106;-82
2023/04/21 05:21:03;;;;;;;129.07;53.78;;;;;;;-144.87;100.00;61487.56;4952233;28;20059;-82
2023/04/21 05:23:30;;;;;;;132.77;54.10;;;;;;;-144.87;100.00;61487.56;4938360;29;20039;-82
2023/04/21 05:25:56;;;;;;;129.30;53.00;;;;;;;-144.87;100.00;61487.56;4918240;29;20421;-84
2023/04/21 05:28:22;;;;;;;128.48;54.60;;;;;;;-144.87;100.00;61487.56;4933162;29;20032;-82
2023/04/21 05:30:49;;;;;;;136.75;54.25;;;;;;;-144.87;100.00;61487.56;4921168;29;20551;-84
2023/04/21 05:33:18;;;;;;;135.55;55.85;;;;;;;-144.87;100.00;61487.56;4907166;29;20134;-86
2023/04/21 05:35:44;;;;;;;138.30;57.38;;;;;;;-144.87;100.00;61487.56;4903118;28;20524;-82
2023/04/21 05:38:10;;;;;;;139.20;59.28;;;;;;;-144.87;100.00;61487.56;4929981;29;20042;-82
2023/04/21 05:40:37;;;;;;;137.32;58.08;;;;;;;-144.87;100.00;61487.56;4939274;29;20130;-80
2023/04/21 05:43:03;;;;;;;143.18;59.78;;;;;;;-144.87;100.00;61487.56;4921315;29;20062;-80
2023/04/21 05:45:29;;;;;;;131.32;57.65;;;;;;;-144.87;100.00;61487.56;4921221;29;20039;-82
2023/04/21 05:47:57;;;;;;;137.18;58.03;;;;;;;-144.87;100.00;61487.56;4937105;28;20035;-79
2023/04/21 05:50:27;;;;;;;130.25;57.67;;;;;;;-144.87;100.00;61487.56;4955334;28;20035;-83
2023/04/21 05:52:53;;;;;;;127.40;58.22;;;;;;;-144.87;100.00;61487.56;4931033;29;20411;-82
2023/04/21 05:55:19;;;;;;;133.43;59.53;;;;;;;-144.87;100.00;61487.56;4918013;29;20629;-83
2023/04/21 05:57:46;;;;;;;142.93;59.70;;;;;;;-144.87;100.00;61487.56;4919582;29;20445;-80
2023/04/21 06:00:12;;;;;;;132.35;60.63;;;;;;;-144.87;100.00;61487.56;4935007;29;20035;-82
2023/04/21 06:02:39;;;;;;;131.23;60.08;;;;;;;-144.87;100.00;61487.56;4935056;29;20484;-82
2023/04/21 06:05:05;;;;;;;132.88;60.15;;;;;;;-144.87;100.00;61487.56;4934349;29;20035;-82
2023/04/21 06:07:31;;;;;;;135.30;62.10;;;;;;;-144.87;100.00;61487.56;4903354;29;20231;-81
2023/04/21 06:09:58;;;;;;;128.70;62.22;;;;;;;-144.87;100.00;61487.56;4936133;29;20405;-80
2023/04/21 06:12:24;;;;;;;124.22;60.55;;;;;;;-144.87;100.00;61487.56;4920226;29;20154;-80
2023/04/21 06:14:50;;;;;;;129.18;59.58;;;;;;;-144.87;100.00;61487.56;4916244;29;20048;-80
2023/04/21 06:17:17;;;;;;;120.10;60.50;;;;;;;-144.87;100.00;61487.56;4930035;29;20046;-82
2023/04/21 06:19:43;;;;;;;126.47;61.53;;;;;;;-144.87;100.00;61487.56;4935770;29;20501;-80
2023/04/21 06:22:10;;;;;;;121.22;58.67;;;;;;;-144.87;100.00;61487.56;4952512;28;20046;-84
2023/04/21 06:24:36;;;;;;;119.15;59.65;;;;;;;-144.87;100.00;61487.56;4934135;29;20042;-84
2023/04/21 06:27:03;;;;;;;125.95;59.40;;;;;;;-144.87;100.00;61487.56;4918456;29;20093;-84
2023/04/21 06:29:29;;;;;;;112.78;58.78;;;;;;;-144.87;100.00;61487.56;4916471;29;20512;-84
2023/04/21 06:31:55;;;;;;;115.10;57.72;;;;;;;-144.87;100.00;61487.56;4947823;29;20377;-84
2023/04/21 06:34:21;;;;;;;112.68;57.42;;;;;;;-144.87;100.00;61487.56;4935496;29;20116;-84
2023/04/21 06:36:47;;;;;;;111.57;59.10;;;;;;;-144.87;100.00;61487.56;4919615;29;20369;-84
2023/04/21 06:39:15;;;;;;;113.75;59.17;;;;;;;-144.87;100.00;61487.56;4952539;29;20039;-86
2023/04/21 06:41:41;;;;;;;112.95;59.70;;;;;;;-144.87;100.00;61487.56;4935508;29;20125;-84
2023/04/21 06:44:12;;;;;;;112.63;58.05;;;;;;;-144.87;100.00;61487.56;4919588;29;20074;-83
2023/04/21 06:46:39;;;;;;;;;;;;;;;-144.87;100.00;61487.56;4920882;29;20043;-84
2023/04/21 06:49:06;;;;;;;106.90;56.40;;;;;;;-144.87;100.00;61487.56;4935529;29;20004;-84
2023/04/21 06:51:32;;;;;;;103.38;57.15;;;;;;;-144.87;100.00;61487.56;4935188;29;20031;-84
2023/04/21 06:54:00;;;;;;;98.78;57.45;;;;;;;-144.87;100.00;61487.56;4919296;29;20331;-84
2023/04/21 06:56:26;;;;;;;102.68;57.40;;;;;;;-144.87;100.00;61487.56;4919625;29;20065;-84
2023/04/21 06:58:53;;;;;;;89.88;52.03;;;;;;;-144.87;100.00;61487.56;4951178;29;20138;-82
2023/04/21 07:01:19;;;;;;;95.80;54.08;;;;;;;-144.87;100.00;61487.56;4935475;29;20080;-84
2023/04/21 07:03:45;;;;;;;96.88;57.28;;;;;;;-144.87;100.00;61487.56;4919856;29;20043;-84
2023/04/21 07:06:12;;;;;;;90.97;54.35;;;;;;;-144.87;100.00;61487.56;4932065;29;20040;-85
2023/04/21 07:08:40;;;;;;;92.80;55.45;;;;;;;-144.87;100.00;61487.56;4932073;29;20040;-86
2023/04/21 07:11:06;;;;;;;90.80;54.10;;;;;;;-144.87;100.00;61487.56;4932358;29;20040;-83
2023/04/21 07:13:32;;;;;;;83.13;50.60;;;;;;;-144.87;100.00;61487.56;4948032;29;20533;-83
2023/04/21 07:15:59;;;;;;;78.65;49.75;;;;;;;-144.87;100.00;61487.56;4932018;29;20542;-83
2023/04/21 07:18:25;;;;;;;75.70;49.15;;;;;;;-144.87;100.00;61487.56;4916282;29;20409;-83
2023/04/21 07:20:51;;;;;;;75.85;48.72;;;;;;;-144.87;100.00;61487.56;4931714;29;20442;-83
2023/04/21 07:23:18;;;;;;;72.60;46.72;;;;;;;-144.87;100.00;61487.56;4934780;29;20043;-85
2023/04/21 07:25:44;;;;;;;69.53;46.40;;;;;;;-144.87;100.00;61487.56;4919005;29;20039;-83
2023/04/21 07:28:13;;;;;;;78.03;47.42;;;;;;;-144.87;100.00;61487.56;4918920;28;20047;-83
2023/04/21 07:30:40;;;;;;;71.78;47.25;;;;;;;-144.87;100.00;61487.56;4919917;29;20488;-83
2023/04/21 07:33:07;;;;;;;72.05;48.28;;;;;;;-144.87;100.00;61487.56;4935738;29;20039;-85
2023/04/21 07:35:33;;;;;;;72.40;47.22;;;;;;;-144.87;100.00;61487.56;4919197;29;20091;-84
2023/04/21 07:38:00;;;;;;;77.45;48.17;;;;;;;-144.87;100.00;61487.56;4935944;28;20039;-84
2023/04/21 07:40:26;;;;;;;70.63;48.08;;;;;;;-144.87;100.00;61487.56;4919818;29;20378;-83
2023/04/21 07:42:52;;;;;;;71.30;47.28;;;;;;;-144.87;100.00;61487.56;4935059;29;20105;-83
2023/04/21 07:45:19;;;;;;;66.15;45.78;;;;;;;-144.87;100.00;61487.56;4919299;29;20416;-82
2023/04/21 07:47:45;;;;;;;65.60;45.58;;;;;;;-144.87;100.00;61487.56;4918852;29;20043;-83
2023/04/21 07:50:11;;;;;;;66.90;44.35;;;;;;;-144.87;100.00;61487.56;4952280;28;20042;-83
2023/04/21 07:52:38;;;;;;;61.00;43.55;;;;;;;-144.87;100.00;61487.56;4919547;29;20142;-83
2023/04/21 07:55:04;;;;;;;59.33;40.28;;;;;;;-144.87;100.00;61487.56;4919684;28;20035;-83
2023/04/21 07:57:33;;;;;;;62.15;44.17;;;;;;;-144.87;100.00;61487.56;4919918;29;20477;-83
2023/04/21 08:00:00;;;;;;;64.78;44.50;;;;;;;-144.87;100.00;61487.56;4935654;29;20481;-83
2023/04/21 08:02:26;;;;;;;57.05;41.53;;;;;;;-144.87;100.00;61487.56;4919307;28;20079;-83
2023/04/21 08:04:53;;;;;;;60.83;42.78;;;;;;;-144.87;100.00;61487.56;4952558;28;20126;-83
2023/04/21 08:07:19;;;;;;;63.00;42.20;;;;;;;-144.87;100.00;61487.56;4935179;29;20035;-83
2023/04/21 08:09:45;;;;;;;60.50;42.17;;;;;;;-144.87;100.00;61487.56;4935505;29;20062;-82
2023/04/21 08:12:11;;;;;;;58.30;41.67;;;;;;;-144.87;100.00;61487.56;4952990;28;20046;-88
2023/04/21 08:14:38;;;;;;;55.60;41.33;;;;;;;-144.87;100.00;61487.56;4936226;29;20134;-82
2023/04/21 08:17:04;;;;;;;56.58;41.20;;;;;;;-144.87;100.00;61487.56;4937573;28;20399;-83
2023/04/21 08:19:32;;;;;;;55.83;40.70;;;;;;;-144.87;100.00;61487.56;4939098;29;20374;-83
2023/04/21 08:21:58;;;;;;;53.92;39.97;;;;;;;-144.87;100.00;61487.56;4952749;29;20035;-83
2023/04/21 08:24:24;;;;;;;54.60;40.17;;;;;;;-144.87;100.00;61487.56;4935561;29;20035;-83
2023/04/21 08:26:52;;;;;;;53.50;36.60;;;;;;;-144.87;100.00;61487.56;4936637;29;20465;-82
2023/04/21 08:29:19;;;;;;;50.80;36.58;;;;;;;-144.87;100.00;61487.56;4921004;29;20047;-83
2023/04/21 08:31:45;;;;;;;48.05;35.50;;;;;;;-144.87;100.00;61487.56;4922592;29;20400;-83
2023/04/21 08:34:11;;;;;;;47.13;35.53;;;;;;;-144.87;100.00;61487.56;4938030;29;20047;-83
2023/04/21 08:36:41;;;;;;;48.35;35.78;;;;;;;-144.87;100.00;61487.56;4931492;28;20090;-83
2023/04/21 08:39:08;;;;;;;52.63;35.17;;;;;;;-144.87;100.00;61487.56;4947058;28;20043;-83
2023/04/21 08:41:34;;;;;;;51.55;37.85;;;;;;;-144.87;100.00;61487.56;4946021;29;20055;-85
2023/04/21 08:44:01;;;;;;;49.75;36.42;;;;;;;-144.87;100.00;61487.56;4952384;29;20400;-82
2023/04/21 08:46:27;;;;;;;52.95;36.72;;;;;;;-144.87;100.00;61487.56;4943821;28;20114;-84
2023/04/21 08:48:54;;;;;;;56.30;38.75;;;;;;;-144.87;100.00;61487.56;4943641;28;20040;-83
2023/04/21 08:51:22;;;;;;;47.58;34.95;;;;;;;-144.87;100.00;61487.56;4940465;29;20078;-85
2023/04/21 08:53:48;;;;;;;50.75;38.00;;;;;;;-144.87;100.00;61487.56;4955173;28;20130;-82
2023/04/21 08:56:15;;;;;;;51.13;37.55;;;;;;;-144.87;100.00;61487.56;4944055;28;20039;-92
2023/04/21 08:58:41;;;;;;;48.78;36.50;;;;;;;-144.87;100.00;61487.56;4976554;28;20055;-83
2023/04/21 09:01:07;;;;;;;49.08;35.67;;;;;;;-144.87;100.00;61487.56;4936754;28;20031;-82
2023/04/21 09:03:34;;;;;;;50.75;36.05;;;;;;;-144.87;100.00;61487.56;4915024;29;20034;-83
2023/04/21 09:06:03;;;;;;;48.78;36.00;;;;;;;-144.87;100.00;61487.56;4944421;29;20049;-82
2023/04/21 09:08:32;;;;;;;48.42;37.17;;;;;;;-144.87;100.00;61487.56;4933601;29;20119;-83
2023/04/21 09:11:00;;;;;;;47.78;36.17;;;;;;;-144.87;100.00;61487.56;4918964;28;20035;-83
2023/04/21 09:13:36;;;;;;;44.08;33.05;;;;;;;-144.87;100.00;61487.56;4954783;29;20035;-83
2023/04/21 09:16:05;;;;;;;44.00;32.97;;;;;;;-144.87;100.00;61487.56;4950611;28;20035;-82
2023/04/21 09:18:35;;;;;;;44.08;32.80;;;;;;;-144.87;100.00;61487.56;4944464;29;20035;-82
2023/04/21 09:21:08;;;;;;;41.20;32.30;;;;;;;-144.87;100.00;61487.56;4919404;29;20050;-82
2023/04/21 09:23:42;;;;;;;40.42;31.27;;;;;;;-144.87;100.00;61487.56;4938444;29;20039;-82
2023/04/21 09:26:09;;;;;;;37.97;29.00;;;;;;;-144.87;100.00;61487.56;4921258;29;20412;-83
2023/04/21 09:28:35;;;;;;;39.97;29.27;;;;;;;-144.87;100.00;61487.56;4921607;29;20122;-82
2023/04/21 09:31:02;;;;;;;41.90;31.73;;;;;;;-144.87;100.00;61487.56;4921982;29;20378;-82
2023/04/21 09:33:31;;;;;;;40.58;29.23;;;;;;;-144.87;100.00;61487.56;4938239;29;20095;-81
2023/04/21 09:36:01;;;;;;;40.67;29.70;;;;;;;-144.87;100.00;61487.56;4921935;29;20117;-82
2023/04/21 09:38:28;;;;;;;;;;;;;;;-144.87;100.00;61487.56;4921915;29;20583;-81
2023/04/21 09:40:58;;;;;;;42.45;30.63;;;;;;;-144.87;100.00;61487.56;4937919;29;19925;-82
2023/04/21 09:43:25;;;;;;;42.20;30.63;;;;;;;-144.87;100.00;61487.56;4921427;29;20050;-82
2023/04/21 09:45:51;;;;;;;43.40;31.55;;;;;;;-144.87;100.00;61487.56;4937144;29;20429;-82
2023/04/21 09:48:18;;;;;;;38.03;29.25;;;;;;;-144.87;100.00;61487.56;4937203;29;20038;-82
2023/04/21 09:50:46;;;;;;;39.20;29.25;;;;;;;-144.87;100.00;61487.56;4921436;29;20126;-81
2023/04/21 09:53:15;;;;;;;39.28;28.25;;;;;;;-144.87;100.00;61487.56;4921645;29;20043;-82
2023/04/21 09:55:42;;;;;;;40.53;29.23;;;;;;;-144.87;100.00;61487.56;4921464;29;20476;-81
2023/04/21 09:58:10;;;;;;;38.78;29.63;;;;;;;-144.87;100.00;61487.56;4905062;29;20058;-82
2023/04/21 10:00:38;;;;;;;41.65;30.65;;;;;;;-144.87;100.00;61487.56;4936413;29;20028;-81
2023/04/21 10:03:10;;;;;;;43.17;31.55;;;;;;;-144.87;100.00;61487.56;4918979;29;20488;-80
2023/04/21 10:05:41;;;;;;;42.53;30.73;;;;;;;-144.87;100.00;61487.56;4922624;29;20114;-79
2023/04/21 10:08:10;;;;;;;;;;;;;;;-144.87;100.00;61487.56;4921352;29;20061;-79
2023/04/21 10:10:36;;;;;;;39.33;29.40;;;;;;;-144.87;100.00;61487.56;4943825;28;19918;-80
2023/04/21 10:13:02;;;;;;;38.05;29.83;;;;;;;-144.87;100.00;61487.56;4949050;28;20039;-79
2023/04/21 10:15:34;;;;;;;42.95;30.05;;;;;;;-144.87;100.00;61487.56;4952422;28;20077;-79
2023/04/21 10:18:23;;;;;;;39.38;30.10;;;;;;;-144.87;100.00;61487.56;4931260;29;20038;-80
2023/04/21 10:20:56;;;;;;;36.15;27.42;;;;;;;-144.87;100.00;61487.56;4951241;28;20062;-78
2023/04/21 10:23:37;;;;;;;34.20;27.38;;;;;;;-144.87;100.00;61487.56;4935229;29;20507;-78
2023/04/21 10:26:06;;;;;;;33.78;25.40;;;;;;;-144.87;100.00;61487.56;4919797;28;20050;-78
2023/04/21 10:28:42;;;;;;;35.60;27.17;;;;;;;-144.87;100.00;61487.56;4908076;28;20065;-79
2023/04/21 10:31:22;;;;;;;36.08;27.05;;;;;;;-144.87;100.00;61487.56;4945586;28;20057;-79
2023/04/21 10:34:12;;;;;;;33.88;25.90;;;;;;;-144.87;100.00;61487.56;4954433;29;20163;-79
2023/04/21 10:36:47;;;;;;;33.83;25.15;;;;;;;-144.87;100.00;61487.56;4953429;29;20094;-79
2023/04/21 10:39:36;;;;;;;32.95;23.65;;;;;;;-144.87;100.00;61487.56;4919259;29;20046;-80
2023/04/21 10:42:23;;;;;;;31.15;22.13;;;;;;;-144.87;100.00;61487.56;4934593;29;20059;-79
2023/04/21 10:45:00;;;;;;;33.58;23.02;;;;;;;-144.87;100.00;61487.56;4916623;29;20036;-79
2023/04/21 10:47:42;;;;;;;29.35;22.75;;;;;;;-144.87;100.00;61487.56;4934266;29;20031;-79
2023/04/21 10:50:18;;;;;;;25.77;20.10;;;;;;;-144.87;100.00;61487.56;4934655;28;20044;-80
2023/04/21 10:52:53;;;;;;;30.50;24.63;;;;;;;-144.87;100.00;61487.56;4953089;29;20047;-79
2023/04/21 10:55:21;;;;;;;34.58;25.67;;;;;;;-144.87;100.00;61487.56;4919677;29;20046;-79
2023/04/21 10:57:48;;;;;;;35.63;25.35;;;;;;;-144.87;100.00;61487.56;4935571;29;20027;-79